Midland, MI (48641)

2:15 PM EDT on October 20, 2014 (GMT -0400)
Mid Michigan Computer Inc | Change Station
CLOSE
Current Station
Personal Weather Station
Location: Midland, MI
Elevation: 659 ft
Nearby Weather Stations

Elev 659 ft 43.59 °N, 84.34 °W | Updated 1 second ago

Overcast
Overcast
55.9 °F
Feels Like 55.9 °F
N
0.0
Wind Variable Wind from NNW
Gusts 1.0 mph

Today
High -- | Low -- °F
--% Chance of Precip.
Yesterday
High -- | Low -- °F
Precip. -- in
7:57 AM 6:45 PM
Waning Crescent, 10% visible
Pressure 29.77 in
Visibility 7.0 miles
Clouds Overcast 1700 ft
Dew Point 50 °F
Humidity 82%
Rainfall 0.00 in
Snow Depth Not available.
UV 1 out of 12
Pollen .30 out of 12
PM2.5 Good
Flu Activity Sporadic
METAR KIKW 201752Z AUTO 30006KT 7SM OVC017 13/09 A2977 RMK AO2 T01310090

More Conditions Fewer Conditions

Pressure 29.77 in
Visibility 7.0 miles
Clouds Overcast 1700 ft
Dew Point 50 °F
Humidity 82%
Rainfall 0.00 in
Snow Depth Not available.
UV 1 out of 12
Pollen .30 out of 12
PM2.5 Good
Flu Activity Sporadic
METAR KIKW 201752Z AUTO 30006KT 7SM OVC017 13/09 A2977 RMK AO2 T01310090

More Conditions Fewer Conditions

10-Day Weather Forecast

Almanac

Astronomy

Oct. 20, 2014 Rise Set
Actual Time 7:57 AM EDT 6:45 PM EDT
Civil Twilight 7:28 AM EDT 7:15 PM EDT
Nautical Twilight 6:55 AM EDT 7:48 PM EDT
Astronomical Twilight 6:22 AM EDT 8:21 PM EDT
Moon 4:39 AM EDT 5:13 PM EDT
Length of Visible Light 11h 46m
Length of Day
10h 48m
Waning Crescent, 10% of the Moon is Illuminated
Today
Waning Crescent
Oct 23
New
Oct 30
First Quarter
Nov 6
Full
Nov 14
Last Quarter

Today's Extremes

State Highs State Lows

Community

WunderPhotos

Upload Photos

1,763,456 photos uploaded!

Nearby

Air Quality

  Air Quality AQ Index Pollutant
Yesterday Good
PM2.5
Current Good
PM2.5
Monday Good
PM2.5
Tuesday Good
PM2.5
Wednesday Good
PM2.5
Thursday Good
PM2.5
Friday Good
PM2.5
Saturday Good
PM2.5

Snow Depth

Station Depth Elevation
No new snow has been reported.

Earthquake Activity

City Distance Mag. Time & Date
No recent earthquake activity has been reported nearby.
Minimum magnitude displayed is 2.5.

Coastal Water Temperatures

Place Temperature
Harbor Beach, MI 51.1 °F

Nearby Weather Stations